sensor_id;sensor_type;location;lat;lon;timestamp;P1;durP1;ratioP1;P2;durP2;ratioP2
73872;SDS011;62206;47.568;9.364;2023-04-25T00:01:18;5.20;;;3.50;;
73872;SDS011;62206;47.568;9.364;2023-04-25T00:03:49;5.68;;;3.30;;
73872;SDS011;62206;47.568;9.364;2023-04-25T00:06:17;4.35;;;3.03;;
73872;SDS011;62206;47.568;9.364;2023-04-25T00:08:47;6.20;;;3.45;;
73872;SDS011;62206;47.568;9.364;2023-04-25T00:11:16;7.43;;;3.65;;
73872;SDS011;62206;47.568;9.364;2023-04-25T00:13:43;7.75;;;3.90;;
73872;SDS011;62206;47.568;9.364;2023-04-25T00:16:11;6.20;;;4.00;;
73872;SDS011;62206;47.568;9.364;2023-04-25T00:18:41;3.80;;;3.40;;
73872;SDS011;62206;47.568;9.364;2023-04-25T00:21:13;5.47;;;3.58;;
73872;SDS011;62206;47.568;9.364;2023-04-25T00:23:41;5.43;;;3.15;;
73872;SDS011;62206;47.568;9.364;2023-04-25T00:26:11;4.43;;;2.75;;
73872;SDS011;62206;47.568;9.364;2023-04-25T00:28:39;4.50;;;3.17;;
73872;SDS011;62206;47.568;9.364;2023-04-25T00:31:08;5.20;;;3.95;;
73872;SDS011;62206;47.568;9.364;2023-04-25T00:33:42;4.32;;;3.55;;
73872;SDS011;62206;47.568;9.364;2023-04-25T00:36:10;9.23;;;4.15;;
73872;SDS011;62206;47.568;9.364;2023-04-25T00:38:39;6.13;;;3.80;;
73872;SDS011;62206;47.568;9.364;2023-04-25T00:41:07;4.45;;;3.22;;
73872;SDS011;62206;47.568;9.364;2023-04-25T00:43:36;4.60;;;3.50;;
73872;SDS011;62206;47.568;9.364;2023-04-25T00:46:04;3.72;;;3.42;;
73872;SDS011;62206;47.568;9.364;2023-04-25T00:48:31;4.53;;;4.03;;
73872;SDS011;62206;47.568;9.364;2023-04-25T00:51:00;7.18;;;3.53;;
73872;SDS011;62206;47.568;9.364;2023-04-25T00:53:28;4.32;;;3.78;;
73872;SDS011;62206;47.568;9.364;2023-04-25T00:55:59;3.70;;;3.40;;
73872;SDS011;62206;47.568;9.364;2023-04-25T00:58:27;5.18;;;3.13;;
73872;SDS011;62206;47.568;9.364;2023-04-25T01:00:55;6.13;;;3.78;;
73872;SDS011;62206;47.568;9.364;2023-04-25T01:03:23;6.25;;;4.13;;
73872;SDS011;62206;47.568;9.364;2023-04-25T01:05:54;4.22;;;3.83;;
73872;SDS011;62206;47.568;9.364;2023-04-25T01:08:23;5.88;;;2.95;;
73872;SDS011;62206;47.568;9.364;2023-04-25T01:10:52;3.95;;;3.20;;
73872;SDS011;62206;47.568;9.364;2023-04-25T01:13:21;7.68;;;3.80;;
73872;SDS011;62206;47.568;9.364;2023-04-25T01:15:49;8.65;;;5.32;;
73872;SDS011;62206;47.568;9.364;2023-04-25T01:18:19;5.38;;;3.55;;
73872;SDS011;62206;47.568;9.364;2023-04-25T01:20:48;5.15;;;3.17;;
73872;SDS011;62206;47.568;9.364;2023-04-25T01:23:19;3.53;;;3.22;;
73872;SDS011;62206;47.568;9.364;2023-04-25T01:25:48;5.95;;;3.70;;
73872;SDS011;62206;47.568;9.364;2023-04-25T01:28:16;3.67;;;3.05;;
73872;SDS011;62206;47.568;9.364;2023-04-25T01:30:44;4.22;;;3.83;;
73872;SDS011;62206;47.568;9.364;2023-04-25T01:33:13;3.33;;;3.08;;
73872;SDS011;62206;47.568;9.364;2023-04-25T01:35:42;8.23;;;3.58;;
73872;SDS011;62206;47.568;9.364;2023-04-25T01:38:09;3.95;;;3.15;;
73872;SDS011;62206;47.568;9.364;2023-04-25T01:40:40;4.30;;;3.88;;
73872;SDS011;62206;47.568;9.364;2023-04-25T01:43:08;4.82;;;4.35;;
73872;SDS011;62206;47.568;9.364;2023-04-25T01:45:37;3.35;;;3.10;;
73872;SDS011;62206;47.568;9.364;2023-04-25T01:48:07;6.10;;;3.75;;
73872;SDS011;62206;47.568;9.364;2023-04-25T01:50:34;5.95;;;4.00;;
73872;SDS011;62206;47.568;9.364;2023-04-25T01:53:02;10.38;;;5.28;;
73872;SDS011;62206;47.568;9.364;2023-04-25T01:55:34;6.88;;;4.43;;
73872;SDS011;62206;47.568;9.364;2023-04-25T01:58:03;6.88;;;4.50;;
73872;SDS011;62206;47.568;9.364;2023-04-25T02:00:35;5.78;;;3.60;;
73872;SDS011;62206;47.568;9.364;2023-04-25T02:03:04;5.45;;;3.78;;
73872;SDS011;62206;47.568;9.364;2023-04-25T02:05:34;4.43;;;3.75;;
73872;SDS011;62206;47.568;9.364;2023-04-25T02:08:04;7.10;;;4.10;;
73872;SDS011;62206;47.568;9.364;2023-04-25T02:10:32;7.95;;;4.40;;
73872;SDS011;62206;47.568;9.364;2023-04-25T02:12:59;8.95;;;4.60;;
73872;SDS011;62206;47.568;9.364;2023-04-25T02:15:29;12.38;;;3.63;;
73872;SDS011;62206;47.568;9.364;2023-04-25T02:20:25;4.65;;;3.63;;
73872;SDS011;62206;47.568;9.364;2023-04-25T02:22:54;5.93;;;3.58;;
73872;SDS011;62206;47.568;9.364;2023-04-25T02:25:22;7.15;;;3.78;;
73872;SDS011;62206;47.568;9.364;2023-04-25T02:28:20;4.72;;;3.15;;
73872;SDS011;62206;47.568;9.364;2023-04-25T02:30:49;4.45;;;3.40;;
73872;SDS011;62206;47.568;9.364;2023-04-25T02:35:45;5.68;;;4.50;;
73872;SDS011;62206;47.568;9.364;2023-04-25T02:38:12;5.00;;;3.55;;
73872;SDS011;62206;47.568;9.364;2023-04-25T02:40:42;8.70;;;4.00;;
73872;SDS011;62206;47.568;9.364;2023-04-25T02:43:11;3.65;;;3.35;;
73872;SDS011;62206;47.568;9.364;2023-04-25T02:45:38;8.23;;;2.95;;
73872;SDS011;62206;47.568;9.364;2023-04-25T02:50:37;6.60;;;3.20;;
73872;SDS011;62206;47.568;9.364;2023-04-25T02:53:04;3.72;;;3.28;;
73872;SDS011;62206;47.568;9.364;2023-04-25T02:55:32;5.18;;;3.47;;
73872;SDS011;62206;47.568;9.364;2023-04-25T02:58:04;5.80;;;3.35;;
73872;SDS011;62206;47.568;9.364;2023-04-25T03:00:33;7.70;;;3.50;;
73872;SDS011;62206;47.568;9.364;2023-04-25T03:03:05;4.95;;;3.70;;
73872;SDS011;62206;47.568;9.364;2023-04-25T03:05:37;4.50;;;3.95;;
73872;SDS011;62206;47.568;9.364;2023-04-25T03:08:04;4.80;;;4.28;;
73872;SDS011;62206;47.568;9.364;2023-04-25T03:10:32;5.07;;;3.97;;
73872;SDS011;62206;47.568;9.364;2023-04-25T03:13:00;9.32;;;4.35;;
73872;SDS011;62206;47.568;9.364;2023-04-25T03:15:30;4.72;;;3.85;;
73872;SDS011;62206;47.568;9.364;2023-04-25T03:17:58;5.13;;;3.35;;
73872;SDS011;62206;47.568;9.364;2023-04-25T03:20:26;10.57;;;4.18;;
73872;SDS011;62206;47.568;9.364;2023-04-25T03:22:55;11.27;;;4.47;;
73872;SDS011;62206;47.568;9.364;2023-04-25T03:25:22;3.72;;;3.40;;
73872;SDS011;62206;47.568;9.364;2023-04-25T03:27:53;4.38;;;3.97;;
73872;SDS011;62206;47.568;9.364;2023-04-25T03:30:20;4.95;;;3.60;;
73872;SDS011;62206;47.568;9.364;2023-04-25T03:32:51;4.43;;;3.78;;
73872;SDS011;62206;47.568;9.364;2023-04-25T03:35:19;9.48;;;3.83;;
73872;SDS011;62206;47.568;9.364;2023-04-25T03:40:24;13.70;;;7.00;;
73872;SDS011;62206;47.568;9.364;2023-04-25T03:42:53;26.48;;;21.00;;
73872;SDS011;62206;47.568;9.364;2023-04-25T03:45:20;34.35;;;30.90;;
73872;SDS011;62206;47.568;9.364;2023-04-25T03:47:48;19.92;;;16.23;;
73872;SDS011;62206;47.568;9.364;2023-04-25T03:50:16;15.13;;;9.57;;
73872;SDS011;62206;47.568;9.364;2023-04-25T03:52:44;10.02;;;7.30;;
73872;SDS011;62206;47.568;9.364;2023-04-25T03:55:11;6.55;;;5.45;;
73872;SDS011;62206;47.568;9.364;2023-04-25T03:57:41;8.30;;;5.10;;
73872;SDS011;62206;47.568;9.364;2023-04-25T04:00:12;5.10;;;4.47;;
73872;SDS011;62206;47.568;9.364;2023-04-25T04:02:41;9.35;;;4.03;;
73872;SDS011;62206;47.568;9.364;2023-04-25T04:05:09;4.55;;;4.10;;
73872;SDS011;62206;47.568;9.364;2023-04-25T04:07:39;6.28;;;4.45;;
73872;SDS011;62206;47.568;9.364;2023-04-25T04:10:12;5.70;;;4.45;;
73872;SDS011;62206;47.568;9.364;2023-04-25T04:12:42;5.00;;;4.32;;
73872;SDS011;62206;47.568;9.364;2023-04-25T04:15:13;10.48;;;5.63;;
73872;SDS011;62206;47.568;9.364;2023-04-25T04:17:40;7.18;;;4.78;;
73872;SDS011;62206;47.568;9.364;2023-04-25T04:20:08;6.40;;;4.28;;
73872;SDS011;62206;47.568;9.364;2023-04-25T04:25:06;6.88;;;5.47;;
73872;SDS011;62206;47.568;9.364;2023-04-25T04:27:43;10.05;;;5.43;;
73872;SDS011;62206;47.568;9.364;2023-04-25T04:30:14;5.07;;;4.57;;
73872;SDS011;62206;47.568;9.364;2023-04-25T04:32:42;13.10;;;5.40;;
73872;SDS011;62206;47.568;9.364;2023-04-25T04:35:10;11.55;;;5.20;;
73872;SDS011;62206;47.568;9.364;2023-04-25T04:53:10;12.55;;;5.85;;
73872;SDS011;62206;47.568;9.364;2023-04-25T04:55:39;6.63;;;4.47;;
73872;SDS011;62206;47.568;9.364;2023-04-25T04:58:08;9.05;;;4.53;;
73872;SDS011;62206;47.568;9.364;2023-04-25T05:00:53;11.35;;;5.47;;
73872;SDS011;62206;47.568;9.364;2023-04-25T05:03:26;8.80;;;5.47;;
73872;SDS011;62206;47.568;9.364;2023-04-25T05:06:42;8.30;;;4.65;;
73872;SDS011;62206;47.568;9.364;2023-04-25T05:18:15;8.05;;;5.00;;
73872;SDS011;62206;47.568;9.364;2023-04-25T05:20:43;8.95;;;4.45;;
73872;SDS011;62206;47.568;9.364;2023-04-25T05:23:13;5.60;;;4.60;;
73872;SDS011;62206;47.568;9.364;2023-04-25T05:33:43;9.93;;;4.22;;
73872;SDS011;62206;47.568;9.364;2023-04-25T05:51:48;9.65;;;4.40;;
73872;SDS011;62206;47.568;9.364;2023-04-25T05:54:19;7.80;;;3.92;;
73872;SDS011;62206;47.568;9.364;2023-04-25T05:56:51;5.22;;;3.92;;
73872;SDS011;62206;47.568;9.364;2023-04-25T05:59:34;8.93;;;3.83;;
73872;SDS011;62206;47.568;9.364;2023-04-25T06:02:05;8.80;;;4.60;;
73872;SDS011;62206;47.568;9.364;2023-04-25T06:04:36;18.67;;;4.72;;
73872;SDS011;62206;47.568;9.364;2023-04-25T06:07:09;9.82;;;5.55;;
73872;SDS011;62206;47.568;9.364;2023-04-25T06:09:43;9.95;;;5.95;;
73872;SDS011;62206;47.568;9.364;2023-04-25T06:12:10;5.88;;;4.43;;
73872;SDS011;62206;47.568;9.364;2023-04-25T06:14:38;7.43;;;4.78;;
73872;SDS011;62206;47.568;9.364;2023-04-25T07:43:32;6.13;;;3.03;;
73872;SDS011;62206;47.568;9.364;2023-04-25T07:46:10;6.07;;;3.55;;
73872;SDS011;62206;47.568;9.364;2023-04-25T07:48:40;6.45;;;2.75;;
73872;SDS011;62206;47.568;9.364;2023-04-25T07:51:08;6.72;;;3.45;;
73872;SDS011;62206;47.568;9.364;2023-04-25T07:53:41;5.78;;;3.78;;
73872;SDS011;62206;47.568;9.364;2023-04-25T07:56:09;7.95;;;1.70;;
73872;SDS011;62206;47.568;9.364;2023-04-25T07:58:42;4.18;;;1.92;;
73872;SDS011;62206;47.568;9.364;2023-04-25T08:01:12;4.00;;;3.10;;
73872;SDS011;62206;47.568;9.364;2023-04-25T08:03:40;5.32;;;1.98;;
73872;SDS011;62206;47.568;9.364;2023-04-25T08:06:09;6.20;;;2.05;;
73872;SDS011;62206;47.568;9.364;2023-04-25T08:08:38;3.85;;;2.22;;
73872;SDS011;62206;47.568;9.364;2023-04-25T08:11:08;5.93;;;2.13;;
73872;SDS011;62206;47.568;9.364;2023-04-25T08:13:36;7.47;;;2.10;;
73872;SDS011;62206;47.568;9.364;2023-04-25T08:16:05;4.10;;;2.13;;
73872;SDS011;62206;47.568;9.364;2023-04-25T08:18:35;6.97;;;2.97;;
73872;SDS011;62206;47.568;9.364;2023-04-25T08:21:02;1.70;;;1.60;;
73872;SDS011;62206;47.568;9.364;2023-04-25T08:23:30;2.42;;;2.22;;
73872;SDS011;62206;47.568;9.364;2023-04-25T08:25:58;4.40;;;1.65;;
73872;SDS011;62206;47.568;9.364;2023-04-25T08:28:28;10.05;;;3.78;;
73872;SDS011;62206;47.568;9.364;2023-04-25T08:31:03;5.20;;;2.10;;
73872;SDS011;62206;47.568;9.364;2023-04-25T08:33:56;7.53;;;1.70;;
73872;SDS011;62206;47.568;9.364;2023-04-25T08:36:26;4.85;;;2.67;;
73872;SDS011;62206;47.568;9.364;2023-04-25T08:38:55;2.28;;;1.70;;
73872;SDS011;62206;47.568;9.364;2023-04-25T08:41:22;7.63;;;2.28;;
73872;SDS011;62206;47.568;9.364;2023-04-25T08:43:51;1.70;;;1.60;;
73872;SDS011;62206;47.568;9.364;2023-04-25T08:46:20;3.15;;;1.75;;
73872;SDS011;62206;47.568;9.364;2023-04-25T08:48:52;4.22;;;1.80;;
73872;SDS011;62206;47.568;9.364;2023-04-25T08:51:30;3.47;;;1.97;;
73872;SDS011;62206;47.568;9.364;2023-04-25T08:54:02;1.30;;;1.15;;
73872;SDS011;62206;47.568;9.364;2023-04-25T08:56:36;6.90;;;3.20;;
73872;SDS011;62206;47.568;9.364;2023-04-25T08:59:09;1.73;;;1.63;;
73872;SDS011;62206;47.568;9.364;2023-04-25T09:01:43;9.27;;;2.58;;
73872;SDS011;62206;47.568;9.364;2023-04-25T09:04:18;10.60;;;2.83;;
73872;SDS011;62206;47.568;9.364;2023-04-25T09:06:49;6.82;;;2.00;;
73872;SDS011;62206;47.568;9.364;2023-04-25T09:09:16;6.28;;;2.13;;
73872;SDS011;62206;47.568;9.364;2023-04-25T09:11:50;4.13;;;1.35;;
73872;SDS011;62206;47.568;9.364;2023-04-25T09:14:20;13.30;;;4.97;;
73872;SDS011;62206;47.568;9.364;2023-04-25T09:17:04;26.38;;;6.00;;
73872;SDS011;62206;47.568;9.364;2023-04-25T09:19:36;4.38;;;1.73;;
73872;SDS011;62206;47.568;9.364;2023-04-25T09:22:06;1.88;;;1.67;;
73872;SDS011;62206;47.568;9.364;2023-04-25T09:24:47;1.33;;;1.23;;
73872;SDS011;62206;47.568;9.364;2023-04-25T09:27:21;17.92;;;4.97;;
73872;SDS011;62206;47.568;9.364;2023-04-25T09:29:56;3.53;;;1.27;;
73872;SDS011;62206;47.568;9.364;2023-04-25T09:32:55;3.50;;;1.67;;
73872;SDS011;62206;47.568;9.364;2023-04-25T09:35:37;1.70;;;1.57;;
73872;SDS011;62206;47.568;9.364;2023-04-25T09:38:29;15.25;;;2.85;;
73872;SDS011;62206;47.568;9.364;2023-04-25T09:41:23;2.35;;;1.55;;
73872;SDS011;62206;47.568;9.364;2023-04-25T09:44:13;4.20;;;2.95;;
73872;SDS011;62206;47.568;9.364;2023-04-25T10:47:22;1.77;;;1.63;;
73872;SDS011;62206;47.568;9.364;2023-04-25T10:50:37;2.65;;;1.05;;
73872;SDS011;62206;47.568;9.364;2023-04-25T10:53:18;3.63;;;1.15;;
73872;SDS011;62206;47.568;9.364;2023-04-25T10:55:50;0.98;;;0.95;;
73872;SDS011;62206;47.568;9.364;2023-04-25T10:58:23;1.05;;;1.05;;
73872;SDS011;62206;47.568;9.364;2023-04-25T11:00:56;2.25;;;1.63;;
73872;SDS011;62206;47.568;9.364;2023-04-25T11:03:33;0.73;;;0.70;;
73872;SDS011;62206;47.568;9.364;2023-04-25T11:06:17;0.95;;;0.95;;
73872;SDS011;62206;47.568;9.364;2023-04-25T11:08:51;5.25;;;2.58;;
73872;SDS011;62206;47.568;9.364;2023-04-25T11:11:22;0.95;;;0.95;;
73872;SDS011;62206;47.568;9.364;2023-04-25T11:13:56;4.63;;;1.50;;
73872;SDS011;62206;47.568;9.364;2023-04-25T11:16:36;4.72;;;2.17;;
73872;SDS011;62206;47.568;9.364;2023-04-25T11:19:17;7.25;;;2.70;;
73872;SDS011;62206;47.568;9.364;2023-04-25T11:22:01;7.07;;;1.92;;
73872;SDS011;62206;47.568;9.364;2023-04-25T11:24:43;1.17;;;1.00;;
73872;SDS011;62206;47.568;9.364;2023-04-25T11:27:13;1.58;;;1.00;;
73872;SDS011;62206;47.568;9.364;2023-04-25T11:29:55;3.92;;;1.15;;
73872;SDS011;62206;47.568;9.364;2023-04-25T11:33:02;2.42;;;1.17;;
73872;SDS011;62206;47.568;9.364;2023-04-25T11:35:43;0.77;;;0.40;;
73872;SDS011;62206;47.568;9.364;2023-04-25T11:41:07;25.05;;;23.58;;
73872;SDS011;62206;47.568;9.364;2023-04-25T11:43:42;1.88;;;1.25;;
73872;SDS011;62206;47.568;9.364;2023-04-25T11:46:19;0.80;;;0.80;;
73872;SDS011;62206;47.568;9.364;2023-04-25T16:10:02;1.00;;;0.90;;
73872;SDS011;62206;47.568;9.364;2023-04-25T16:12:38;0.70;;;0.70;;
73872;SDS011;62206;47.568;9.364;2023-04-25T16:15:37;0.90;;;0.77;;
73872;SDS011;62206;47.568;9.364;2023-04-25T16:18:11;0.80;;;0.80;;
73872;SDS011;62206;47.568;9.364;2023-04-25T16:20:44;1.98;;;1.05;;
73872;SDS011;62206;47.568;9.364;2023-04-25T16:23:21;0.77;;;0.77;;
73872;SDS011;62206;47.568;9.364;2023-04-25T16:25:55;2.47;;;0.68;;
73872;SDS011;62206;47.568;9.364;2023-04-25T16:28:37;2.05;;;0.80;;
73872;SDS011;62206;47.568;9.364;2023-04-25T16:31:32;1.00;;;1.00;;
73872;SDS011;62206;47.568;9.364;2023-04-25T16:34:23;1.08;;;1.08;;
73872;SDS011;62206;47.568;9.364;2023-04-25T16:37:02;3.17;;;1.58;;
73872;SDS011;62206;47.568;9.364;2023-04-25T16:39:44;1.40;;;1.27;;
73872;SDS011;62206;47.568;9.364;2023-04-25T16:42:26;1.40;;;0.73;;
73872;SDS011;62206;47.568;9.364;2023-04-25T16:45:17;2.67;;;1.48;;
73872;SDS011;62206;47.568;9.364;2023-04-25T16:48:01;1.67;;;1.42;;
73872;SDS011;62206;47.568;9.364;2023-04-25T18:06:35;1.17;;;1.08;;
73872;SDS011;62206;47.568;9.364;2023-04-25T18:09:06;2.17;;;1.67;;
73872;SDS011;62206;47.568;9.364;2023-04-25T18:42:45;4.45;;;4.15;;
73872;SDS011;62206;47.568;9.364;2023-04-25T18:45:14;1.80;;;1.70;;
73872;SDS011;62206;47.568;9.364;2023-04-25T18:47:42;1.70;;;1.60;;
73872;SDS011;62206;47.568;9.364;2023-04-25T18:50:11;1.77;;;1.67;;
73872;SDS011;62206;47.568;9.364;2023-04-25T18:52:42;4.18;;;1.60;;
73872;SDS011;62206;47.568;9.364;2023-04-25T18:55:13;2.53;;;0.93;;
73872;SDS011;62206;47.568;9.364;2023-04-25T18:57:42;1.58;;;1.45;;
73872;SDS011;62206;47.568;9.364;2023-04-25T19:00:13;0.98;;;0.95;;
73872;SDS011;62206;47.568;9.364;2023-04-25T19:02:43;2.63;;;1.35;;
73872;SDS011;62206;47.568;9.364;2023-04-25T19:05:12;1.65;;;1.13;;
73872;SDS011;62206;47.568;9.364;2023-04-25T19:07:41;1.23;;;1.15;;
73872;SDS011;62206;47.568;9.364;2023-04-25T19:10:11;1.55;;;1.38;;
73872;SDS011;62206;47.568;9.364;2023-04-25T19:12:40;2.92;;;1.60;;
73872;SDS011;62206;47.568;9.364;2023-04-25T19:15:09;2.83;;;1.30;;
73872;SDS011;62206;47.568;9.364;2023-04-25T19:17:41;1.70;;;1.05;;
73872;SDS011;62206;47.568;9.364;2023-04-25T19:20:10;1.75;;;1.55;;
73872;SDS011;62206;47.568;9.364;2023-04-25T19:22:41;1.50;;;1.40;;
73872;SDS011;62206;47.568;9.364;2023-04-25T19:25:10;1.40;;;1.30;;
73872;SDS011;62206;47.568;9.364;2023-04-25T19:27:40;1.85;;;1.75;;
73872;SDS011;62206;47.568;9.364;2023-04-25T19:30:12;3.58;;;1.73;;
73872;SDS011;62206;47.568;9.364;2023-04-25T19:32:46;2.25;;;1.58;;
73872;SDS011;62206;47.568;9.364;2023-04-25T19:35:23;1.40;;;1.30;;
73872;SDS011;62206;47.568;9.364;2023-04-25T19:37:55;1.83;;;1.35;;
73872;SDS011;62206;47.568;9.364;2023-04-25T19:40:24;1.40;;;1.30;;
73872;SDS011;62206;47.568;9.364;2023-04-25T19:43:12;2.22;;;1.52;;
73872;SDS011;62206;47.568;9.364;2023-04-25T19:45:42;1.23;;;1.13;;
73872;SDS011;62206;47.568;9.364;2023-04-25T19:48:16;1.50;;;1.38;;
73872;SDS011;62206;47.568;9.364;2023-04-25T19:50:44;2.40;;;1.60;;
73872;SDS011;62206;47.568;9.364;2023-04-25T19:53:13;1.38;;;1.27;;
73872;SDS011;62206;47.568;9.364;2023-04-25T19:55:41;2.88;;;2.38;;
73872;SDS011;62206;47.568;9.364;2023-04-25T19:58:10;6.40;;;2.03;;
73872;SDS011;62206;47.568;9.364;2023-04-25T20:00:39;1.25;;;1.15;;
73872;SDS011;62206;47.568;9.364;2023-04-25T20:03:09;4.18;;;1.65;;
73872;SDS011;62206;47.568;9.364;2023-04-25T20:05:43;2.50;;;2.30;;
73872;SDS011;62206;47.568;9.364;2023-04-25T20:08:13;1.90;;;1.50;;
73872;SDS011;62206;47.568;9.364;2023-04-25T20:10:46;8.10;;;2.63;;
73872;SDS011;62206;47.568;9.364;2023-04-25T20:13:18;5.65;;;2.67;;
73872;SDS011;62206;47.568;9.364;2023-04-25T20:15:49;2.80;;;2.35;;
73872;SDS011;62206;47.568;9.364;2023-04-25T20:18:19;3.17;;;2.88;;
73872;SDS011;62206;47.568;9.364;2023-04-25T20:21:04;5.55;;;2.00;;
73872;SDS011;62206;47.568;9.364;2023-04-25T20:23:38;3.38;;;2.13;;
73872;SDS011;62206;47.568;9.364;2023-04-25T20:26:48;2.85;;;2.55;;
73872;SDS011;62206;47.568;9.364;2023-04-25T20:29:18;9.20;;;4.28;;
73872;SDS011;62206;47.568;9.364;2023-04-25T20:32:00;7.22;;;3.05;;
73872;SDS011;62206;47.568;9.364;2023-04-25T20:34:52;5.07;;;2.53;;
73872;SDS011;62206;47.568;9.364;2023-04-25T20:37:25;2.95;;;2.17;;
73872;SDS011;62206;47.568;9.364;2023-04-25T20:40:18;2.13;;;1.92;;
73872;SDS011;62206;47.568;9.364;2023-04-25T20:42:52;2.22;;;1.95;;
73872;SDS011;62206;47.568;9.364;2023-04-25T20:45:21;2.55;;;2.10;;
73872;SDS011;62206;47.568;9.364;2023-04-25T20:47:54;2.00;;;1.90;;
73872;SDS011;62206;47.568;9.364;2023-04-25T20:50:24;3.63;;;2.67;;
73872;SDS011;62206;47.568;9.364;2023-04-25T20:52:55;4.38;;;2.42;;
73872;SDS011;62206;47.568;9.364;2023-04-25T20:55:24;2.28;;;1.85;;
73872;SDS011;62206;47.568;9.364;2023-04-25T20:57:53;2.13;;;2.03;;
73872;SDS011;62206;47.568;9.364;2023-04-25T21:00:27;2.13;;;1.92;;
73872;SDS011;62206;47.568;9.364;2023-04-25T21:02:58;3.58;;;2.55;;
73872;SDS011;62206;47.568;9.364;2023-04-25T21:05:28;4.22;;;2.88;;
73872;SDS011;62206;47.568;9.364;2023-04-25T21:08:01;2.38;;;2.17;;
73872;SDS011;62206;47.568;9.364;2023-04-25T21:10:33;4.15;;;3.17;;
73872;SDS011;62206;47.568;9.364;2023-04-25T21:13:01;4.20;;;2.70;;
73872;SDS011;62206;47.568;9.364;2023-04-25T21:15:30;2.80;;;2.42;;
73872;SDS011;62206;47.568;9.364;2023-04-25T21:17:59;1.85;;;1.70;;
73872;SDS011;62206;47.568;9.364;2023-04-25T21:20:28;2.85;;;2.35;;
73872;SDS011;62206;47.568;9.364;2023-04-25T21:22:57;6.40;;;2.97;;
73872;SDS011;62206;47.568;9.364;2023-04-25T21:25:29;3.40;;;2.95;;
73872;SDS011;62206;47.568;9.364;2023-04-25T21:27:57;3.05;;;2.35;;
73872;SDS011;62206;47.568;9.364;2023-04-25T21:30:26;3.47;;;2.22;;
73872;SDS011;62206;47.568;9.364;2023-04-25T21:33:01;2.97;;;2.05;;
73872;SDS011;62206;47.568;9.364;2023-04-25T21:35:32;5.45;;;3.13;;
73872;SDS011;62206;47.568;9.364;2023-04-25T21:38:05;2.65;;;2.45;;
73872;SDS011;62206;47.568;9.364;2023-04-25T21:40:33;4.47;;;2.95;;
73872;SDS011;62206;47.568;9.364;2023-04-25T21:43:03;3.28;;;2.70;;
73872;SDS011;62206;47.568;9.364;2023-04-25T21:45:31;7.72;;;2.45;;
73872;SDS011;62206;47.568;9.364;2023-04-25T21:47:59;3.13;;;2.38;;
73872;SDS011;62206;47.568;9.364;2023-04-25T21:50:28;3.05;;;2.55;;
73872;SDS011;62206;47.568;9.364;2023-04-25T21:52:56;3.75;;;2.83;;
73872;SDS011;62206;47.568;9.364;2023-04-25T21:55:33;2.97;;;2.47;;
73872;SDS011;62206;47.568;9.364;2023-04-25T21:58:02;2.78;;;2.33;;
73872;SDS011;62206;47.568;9.364;2023-04-25T22:00:37;2.83;;;1.90;;
73872;SDS011;62206;47.568;9.364;2023-04-25T22:03:13;2.58;;;1.90;;
73872;SDS011;62206;47.568;9.364;2023-04-25T22:05:46;5.05;;;2.35;;
73872;SDS011;62206;47.568;9.364;2023-04-25T22:08:20;2.92;;;2.33;;
73872;SDS011;62206;47.568;9.364;2023-04-25T22:24:29;1.00;;;1.00;;
73872;SDS011;62206;47.568;9.364;2023-04-25T22:27:31;1.58;;;1.00;;
73872;SDS011;62206;47.568;9.364;2023-04-25T22:30:27;1.15;;;1.13;;
73872;SDS011;62206;47.568;9.364;2023-04-25T22:33:26;1.80;;;1.70;;
73872;SDS011;62206;47.568;9.364;2023-04-25T22:39:56;2.05;;;1.10;;
73872;SDS011;62206;47.568;9.364;2023-04-25T22:43:13;2.22;;;2.03;;
73872;SDS011;62206;47.568;9.364;2023-04-25T22:47:02;1.38;;;1.05;;
73872;SDS011;62206;47.568;9.364;2023-04-25T22:50:42;1.42;;;1.33;;
73872;SDS011;62206;47.568;9.364;2023-04-25T22:54:05;1.63;;;1.52;;
73872;SDS011;62206;47.568;9.364;2023-04-25T23:03:34;1.30;;;1.25;;
73872;SDS011;62206;47.568;9.364;2023-04-25T23:06:10;1.95;;;1.38;;
73872;SDS011;62206;47.568;9.364;2023-04-25T23:08:47;2.95;;;1.88;;
73872;SDS011;62206;47.568;9.364;2023-04-25T23:11:19;1.85;;;1.67;;
73872;SDS011;62206;47.568;9.364;2023-04-25T23:13:53;2.13;;;1.65;;
73872;SDS011;62206;47.568;9.364;2023-04-25T23:16:27;4.40;;;1.70;;
73872;SDS011;62206;47.568;9.364;2023-04-25T23:19:01;2.28;;;2.08;;
73872;SDS011;62206;47.568;9.364;2023-04-25T23:21:34;3.70;;;1.98;;
73872;SDS011;62206;47.568;9.364;2023-04-25T23:24:07;2.60;;;2.03;;
73872;SDS011;62206;47.568;9.364;2023-04-25T23:26:40;1.30;;;1.20;;
73872;SDS011;62206;47.568;9.364;2023-04-25T23:29:17;2.10;;;1.73;;
73872;SDS011;62206;47.568;9.364;2023-04-25T23:31:51;1.67;;;1.58;;
73872;SDS011;62206;47.568;9.364;2023-04-25T23:34:24;3.40;;;2.22;;
73872;SDS011;62206;47.568;9.364;2023-04-25T23:36:55;2.05;;;1.60;;
73872;SDS011;62206;47.568;9.364;2023-04-25T23:39:28;3.25;;;1.45;;
73872;SDS011;62206;47.568;9.364;2023-04-25T23:41:58;2.58;;;1.70;;
73872;SDS011;62206;47.568;9.364;2023-04-25T23:44:30;2.70;;;1.83;;
73872;SDS011;62206;47.568;9.364;2023-04-25T23:47:07;1.90;;;1.63;;
73872;SDS011;62206;47.568;9.364;2023-04-25T23:49:41;1.70;;;1.60;;
73872;SDS011;62206;47.568;9.364;2023-04-25T23:52:13;2.33;;;1.73;;
73872;SDS011;62206;47.568;9.364;2023-04-25T23:54:50;2.22;;;1.95;;
73872;SDS011;62206;47.568;9.364;2023-04-25T23:57:23;3.25;;;1.50;;
73872;SDS011;62206;47.568;9.364;2023-04-25T23:59:57;3.03;;;2.03;;
